sensor_id;sensor_type;location;lat;lon;timestamp;P1;durP1;ratioP1;P2;durP2;ratioP2
64157;SDS011;50449;51.528;5.076;2023-07-29T00:00:41;95.07;;;90.57;;
64157;SDS011;50449;51.528;5.076;2023-07-29T00:03:06;94.03;;;89.70;;
64157;SDS011;50449;51.528;5.076;2023-07-29T00:05:31;94.32;;;89.82;;
64157;SDS011;50449;51.528;5.076;2023-07-29T00:07:57;96.32;;;91.72;;
64157;SDS011;50449;51.528;5.076;2023-07-29T00:10:22;97.00;;;92.50;;
64157;SDS011;50449;51.528;5.076;2023-07-29T00:12:48;92.60;;;88.38;;
64157;SDS011;50449;51.528;5.076;2023-07-29T00:15:13;93.20;;;88.45;;
64157;SDS011;50449;51.528;5.076;2023-07-29T00:17:39;92.45;;;88.05;;
64157;SDS011;50449;51.528;5.076;2023-07-29T00:20:05;93.72;;;89.13;;
64157;SDS011;50449;51.528;5.076;2023-07-29T00:22:32;95.53;;;90.85;;
64157;SDS011;50449;51.528;5.076;2023-07-29T00:24:58;95.60;;;91.10;;
64157;SDS011;50449;51.528;5.076;2023-07-29T00:27:24;90.45;;;85.82;;
64157;SDS011;50449;51.528;5.076;2023-07-29T00:29:50;92.47;;;88.18;;
64157;SDS011;50449;51.528;5.076;2023-07-29T00:32:16;93.15;;;88.85;;
64157;SDS011;50449;51.528;5.076;2023-07-29T00:34:41;95.00;;;90.70;;
64157;SDS011;50449;51.528;5.076;2023-07-29T00:37:07;93.28;;;88.88;;
64157;SDS011;50449;51.528;5.076;2023-07-29T00:39:32;95.80;;;91.05;;
64157;SDS011;50449;51.528;5.076;2023-07-29T00:41:58;94.03;;;89.63;;
64157;SDS011;50449;51.528;5.076;2023-07-29T00:44:23;92.65;;;87.72;;
64157;SDS011;50449;51.528;5.076;2023-07-29T00:46:52;93.20;;;88.90;;
64157;SDS011;50449;51.528;5.076;2023-07-29T00:49:18;90.93;;;86.68;;
64157;SDS011;50449;51.528;5.076;2023-07-29T00:51:45;96.13;;;91.13;;
64157;SDS011;50449;51.528;5.076;2023-07-29T00:54:11;91.38;;;86.88;;
64157;SDS011;50449;51.528;5.076;2023-07-29T00:56:37;94.18;;;89.72;;
64157;SDS011;50449;51.528;5.076;2023-07-29T00:59:03;92.15;;;87.70;;
64157;SDS011;50449;51.528;5.076;2023-07-29T01:01:29;92.38;;;87.97;;
64157;SDS011;50449;51.528;5.076;2023-07-29T01:03:55;90.90;;;86.68;;
64157;SDS011;50449;51.528;5.076;2023-07-29T01:06:23;92.15;;;87.75;;
64157;SDS011;50449;51.528;5.076;2023-07-29T01:09:08;94.32;;;89.40;;
64157;SDS011;50449;51.528;5.076;2023-07-29T01:12:01;88.10;;;84.00;;
64157;SDS011;50449;51.528;5.076;2023-07-29T01:17:30;89.75;;;85.40;;
64157;SDS011;50449;51.528;5.076;2023-07-29T01:20:25;89.63;;;85.43;;
64157;SDS011;50449;51.528;5.076;2023-07-29T01:22:50;88.15;;;83.82;;
64157;SDS011;50449;51.528;5.076;2023-07-29T01:25:16;89.82;;;85.63;;
64157;SDS011;50449;51.528;5.076;2023-07-29T01:27:44;91.97;;;87.60;;
64157;SDS011;50449;51.528;5.076;2023-07-29T01:30:11;93.18;;;88.82;;
64157;SDS011;50449;51.528;5.076;2023-07-29T01:32:39;89.78;;;85.40;;
64157;SDS011;50449;51.528;5.076;2023-07-29T01:35:24;90.35;;;86.25;;
64157;SDS011;50449;51.528;5.076;2023-07-29T01:40:27;91.47;;;87.03;;
64157;SDS011;50449;51.528;5.076;2023-07-29T01:42:53;87.53;;;83.32;;
64157;SDS011;50449;51.528;5.076;2023-07-29T01:45:21;90.57;;;85.93;;
64157;SDS011;50449;51.528;5.076;2023-07-29T01:47:49;86.55;;;82.65;;
64157;SDS011;50449;51.528;5.076;2023-07-29T01:50:14;89.25;;;85.25;;
64157;SDS011;50449;51.528;5.076;2023-07-29T01:52:40;93.45;;;89.10;;
64157;SDS011;50449;51.528;5.076;2023-07-29T01:55:05;89.75;;;85.30;;
64157;SDS011;50449;51.528;5.076;2023-07-29T01:57:31;89.47;;;85.00;;
64157;SDS011;50449;51.528;5.076;2023-07-29T01:59:56;86.43;;;82.43;;
64157;SDS011;50449;51.528;5.076;2023-07-29T02:02:22;88.07;;;84.07;;
64157;SDS011;50449;51.528;5.076;2023-07-29T02:04:47;87.40;;;83.35;;
64157;SDS011;50449;51.528;5.076;2023-07-29T02:07:16;88.05;;;84.00;;
64157;SDS011;50449;51.528;5.076;2023-07-29T02:09:43;87.88;;;83.80;;
64157;SDS011;50449;51.528;5.076;2023-07-29T02:12:08;85.45;;;81.55;;
64157;SDS011;50449;51.528;5.076;2023-07-29T02:14:34;87.60;;;83.43;;
64157;SDS011;50449;51.528;5.076;2023-07-29T02:16:59;83.68;;;79.88;;
64157;SDS011;50449;51.528;5.076;2023-07-29T02:19:24;91.68;;;87.40;;
64157;SDS011;50449;51.528;5.076;2023-07-29T02:21:50;84.97;;;80.88;;
64157;SDS011;50449;51.528;5.076;2023-07-29T02:24:15;87.82;;;83.88;;
64157;SDS011;50449;51.528;5.076;2023-07-29T02:26:41;85.03;;;81.13;;
64157;SDS011;50449;51.528;5.076;2023-07-29T02:29:06;86.07;;;82.18;;
64157;SDS011;50449;51.528;5.076;2023-07-29T02:31:32;85.97;;;82.00;;
64157;SDS011;50449;51.528;5.076;2023-07-29T02:33:59;89.13;;;84.38;;
64157;SDS011;50449;51.528;5.076;2023-07-29T02:36:25;81.78;;;77.82;;
64157;SDS011;50449;51.528;5.076;2023-07-29T02:38:50;86.75;;;82.82;;
64157;SDS011;50449;51.528;5.076;2023-07-29T02:41:16;82.47;;;78.70;;
64157;SDS011;50449;51.528;5.076;2023-07-29T02:43:47;86.65;;;82.55;;
64157;SDS011;50449;51.528;5.076;2023-07-29T02:46:13;85.38;;;81.38;;
64157;SDS011;50449;51.528;5.076;2023-07-29T02:48:39;87.13;;;83.15;;
64157;SDS011;50449;51.528;5.076;2023-07-29T02:51:04;83.60;;;79.68;;
64157;SDS011;50449;51.528;5.076;2023-07-29T02:53:30;86.97;;;82.88;;
64157;SDS011;50449;51.528;5.076;2023-07-29T02:55:55;84.20;;;80.40;;
64157;SDS011;50449;51.528;5.076;2023-07-29T02:58:20;84.80;;;80.97;;
64157;SDS011;50449;51.528;5.076;2023-07-29T03:00:46;83.55;;;79.57;;
64157;SDS011;50449;51.528;5.076;2023-07-29T03:03:13;82.25;;;78.43;;
64157;SDS011;50449;51.528;5.076;2023-07-29T03:05:39;81.45;;;77.65;;
64157;SDS011;50449;51.528;5.076;2023-07-29T03:08:04;83.13;;;79.30;;
64157;SDS011;50449;51.528;5.076;2023-07-29T03:10:30;88.72;;;84.63;;
64157;SDS011;50449;51.528;5.076;2023-07-29T03:12:55;82.50;;;78.63;;
64157;SDS011;50449;51.528;5.076;2023-07-29T03:15:24;81.38;;;77.70;;
64157;SDS011;50449;51.528;5.076;2023-07-29T03:17:50;87.40;;;83.30;;
64157;SDS011;50449;51.528;5.076;2023-07-29T03:20:16;82.25;;;78.43;;
64157;SDS011;50449;51.528;5.076;2023-07-29T03:22:43;86.63;;;82.63;;
64157;SDS011;50449;51.528;5.076;2023-07-29T03:25:09;81.40;;;77.57;;
64157;SDS011;50449;51.528;5.076;2023-07-29T03:27:34;80.78;;;76.88;;
64157;SDS011;50449;51.528;5.076;2023-07-29T03:30:01;81.40;;;77.60;;
64157;SDS011;50449;51.528;5.076;2023-07-29T03:32:30;81.80;;;78.05;;
64157;SDS011;50449;51.528;5.076;2023-07-29T03:34:55;82.25;;;78.45;;
64157;SDS011;50449;51.528;5.076;2023-07-29T03:37:21;80.50;;;76.78;;
64157;SDS011;50449;51.528;5.076;2023-07-29T03:39:47;85.53;;;81.53;;
64157;SDS011;50449;51.528;5.076;2023-07-29T03:42:12;81.78;;;77.88;;
64157;SDS011;50449;51.528;5.076;2023-07-29T03:44:38;75.68;;;72.07;;
64157;SDS011;50449;51.528;5.076;2023-07-29T03:47:04;82.03;;;78.28;;
64157;SDS011;50449;51.528;5.076;2023-07-29T03:49:30;78.72;;;75.13;;
64157;SDS011;50449;51.528;5.076;2023-07-29T03:51:56;81.57;;;77.70;;
64157;SDS011;50449;51.528;5.076;2023-07-29T03:54:21;81.65;;;77.65;;
64157;SDS011;50449;51.528;5.076;2023-07-29T03:56:47;81.03;;;77.30;;
64157;SDS011;50449;51.528;5.076;2023-07-29T03:59:12;79.97;;;76.28;;
64157;SDS011;50449;51.528;5.076;2023-07-29T04:01:38;79.55;;;75.95;;
64157;SDS011;50449;51.528;5.076;2023-07-29T04:04:03;82.00;;;78.30;;
64157;SDS011;50449;51.528;5.076;2023-07-29T04:06:28;81.90;;;78.10;;
64157;SDS011;50449;51.528;5.076;2023-07-29T04:08:54;81.20;;;77.45;;
64157;SDS011;50449;51.528;5.076;2023-07-29T04:11:20;82.55;;;78.70;;
64157;SDS011;50449;51.528;5.076;2023-07-29T04:13:45;83.70;;;79.68;;
64157;SDS011;50449;51.528;5.076;2023-07-29T04:16:11;85.00;;;80.90;;
64157;SDS011;50449;51.528;5.076;2023-07-29T04:18:36;77.95;;;74.15;;
64157;SDS011;50449;51.528;5.076;2023-07-29T04:21:01;78.88;;;75.18;;
64157;SDS011;50449;51.528;5.076;2023-07-29T04:23:27;81.38;;;77.60;;
64157;SDS011;50449;51.528;5.076;2023-07-29T04:25:52;79.43;;;75.72;;
64157;SDS011;50449;51.528;5.076;2023-07-29T04:28:18;76.10;;;72.40;;
64157;SDS011;50449;51.528;5.076;2023-07-29T04:30:43;82.15;;;78.35;;
64157;SDS011;50449;51.528;5.076;2023-07-29T04:33:08;77.40;;;73.82;;
64157;SDS011;50449;51.528;5.076;2023-07-29T04:35:34;81.43;;;77.63;;
64157;SDS011;50449;51.528;5.076;2023-07-29T04:37:59;80.40;;;76.60;;
64157;SDS011;50449;51.528;5.076;2023-07-29T04:40:25;80.18;;;76.38;;
64157;SDS011;50449;51.528;5.076;2023-07-29T04:42:51;81.25;;;77.47;;
64157;SDS011;50449;51.528;5.076;2023-07-29T04:45:16;77.00;;;73.38;;
64157;SDS011;50449;51.528;5.076;2023-07-29T04:47:42;86.57;;;82.35;;
64157;SDS011;50449;51.528;5.076;2023-07-29T04:50:07;78.82;;;75.28;;
64157;SDS011;50449;51.528;5.076;2023-07-29T04:52:33;77.22;;;73.63;;
64157;SDS011;50449;51.528;5.076;2023-07-29T04:54:59;78.65;;;75.05;;
64157;SDS011;50449;51.528;5.076;2023-07-29T04:57:24;78.60;;;75.03;;
64157;SDS011;50449;51.528;5.076;2023-07-29T04:59:50;80.20;;;76.50;;
64157;SDS011;50449;51.528;5.076;2023-07-29T05:02:15;79.43;;;75.65;;
64157;SDS011;50449;51.528;5.076;2023-07-29T05:04:40;80.03;;;76.35;;
64157;SDS011;50449;51.528;5.076;2023-07-29T05:07:06;83.57;;;79.38;;
64157;SDS011;50449;51.528;5.076;2023-07-29T05:09:31;79.13;;;75.13;;
64157;SDS011;50449;51.528;5.076;2023-07-29T05:11:57;81.60;;;77.78;;
64157;SDS011;50449;51.528;5.076;2023-07-29T05:14:22;77.53;;;73.97;;
64157;SDS011;50449;51.528;5.076;2023-07-29T05:16:47;76.63;;;73.15;;
64157;SDS011;50449;51.528;5.076;2023-07-29T05:19:13;77.43;;;73.88;;
64157;SDS011;50449;51.528;5.076;2023-07-29T05:21:38;78.53;;;74.68;;
64157;SDS011;50449;51.528;5.076;2023-07-29T05:24:04;78.57;;;74.15;;
64157;SDS011;50449;51.528;5.076;2023-07-29T05:26:30;81.15;;;77.45;;
64157;SDS011;50449;51.528;5.076;2023-07-29T05:28:55;79.22;;;75.43;;
64157;SDS011;50449;51.528;5.076;2023-07-29T05:31:21;80.72;;;77.03;;
64157;SDS011;50449;51.528;5.076;2023-07-29T05:33:47;76.53;;;72.93;;
64157;SDS011;50449;51.528;5.076;2023-07-29T05:36:12;74.65;;;71.22;;
64157;SDS011;50449;51.528;5.076;2023-07-29T05:38:38;76.43;;;72.93;;
64157;SDS011;50449;51.528;5.076;2023-07-29T05:41:03;76.38;;;72.72;;
64157;SDS011;50449;51.528;5.076;2023-07-29T05:43:29;79.80;;;76.10;;
64157;SDS011;50449;51.528;5.076;2023-07-29T05:45:54;75.68;;;71.22;;
64157;SDS011;50449;51.528;5.076;2023-07-29T05:48:19;74.43;;;70.95;;
64157;SDS011;50449;51.528;5.076;2023-07-29T05:50:45;74.47;;;71.07;;
64157;SDS011;50449;51.528;5.076;2023-07-29T05:53:11;76.03;;;72.43;;
64157;SDS011;50449;51.528;5.076;2023-07-29T05:55:36;78.13;;;74.47;;
64157;SDS011;50449;51.528;5.076;2023-07-29T05:58:01;78.40;;;74.60;;
64157;SDS011;50449;51.528;5.076;2023-07-29T06:00:27;79.78;;;75.90;;
64157;SDS011;50449;51.528;5.076;2023-07-29T06:02:52;78.55;;;74.75;;
64157;SDS011;50449;51.528;5.076;2023-07-29T06:05:18;75.57;;;71.88;;
64157;SDS011;50449;51.528;5.076;2023-07-29T06:07:43;76.47;;;72.90;;
64157;SDS011;50449;51.528;5.076;2023-07-29T06:10:10;75.68;;;72.03;;
64157;SDS011;50449;51.528;5.076;2023-07-29T06:12:38;76.68;;;73.18;;
64157;SDS011;50449;51.528;5.076;2023-07-29T06:15:04;73.50;;;70.00;;
64157;SDS011;50449;51.528;5.076;2023-07-29T06:17:29;74.90;;;71.47;;
64157;SDS011;50449;51.528;5.076;2023-07-29T06:19:55;76.80;;;73.25;;
64157;SDS011;50449;51.528;5.076;2023-07-29T06:22:20;75.45;;;71.72;;
64157;SDS011;50449;51.528;5.076;2023-07-29T06:24:46;78.00;;;74.35;;
64157;SDS011;50449;51.528;5.076;2023-07-29T06:27:11;76.53;;;72.82;;
64157;SDS011;50449;51.528;5.076;2023-07-29T06:29:37;75.72;;;72.03;;
64157;SDS011;50449;51.528;5.076;2023-07-29T06:32:02;77.40;;;73.60;;
64157;SDS011;50449;51.528;5.076;2023-07-29T06:34:28;75.22;;;71.82;;
64157;SDS011;50449;51.528;5.076;2023-07-29T06:36:53;77.65;;;74.05;;
64157;SDS011;50449;51.528;5.076;2023-07-29T06:39:18;75.32;;;71.63;;
64157;SDS011;50449;51.528;5.076;2023-07-29T06:41:44;73.85;;;70.32;;
64157;SDS011;50449;51.528;5.076;2023-07-29T06:44:09;75.63;;;71.95;;
64157;SDS011;50449;51.528;5.076;2023-07-29T06:46:35;73.60;;;70.07;;
64157;SDS011;50449;51.528;5.076;2023-07-29T06:49:00;77.38;;;73.75;;
64157;SDS011;50449;51.528;5.076;2023-07-29T06:51:25;74.90;;;71.50;;
64157;SDS011;50449;51.528;5.076;2023-07-29T06:53:51;75.57;;;72.00;;
64157;SDS011;50449;51.528;5.076;2023-07-29T06:56:17;75.72;;;72.25;;
64157;SDS011;50449;51.528;5.076;2023-07-29T06:58:42;75.63;;;72.13;;
64157;SDS011;50449;51.528;5.076;2023-07-29T07:01:08;79.53;;;75.65;;
64157;SDS011;50449;51.528;5.076;2023-07-29T07:03:33;74.65;;;71.05;;
64157;SDS011;50449;51.528;5.076;2023-07-29T07:05:59;73.03;;;69.53;;
64157;SDS011;50449;51.528;5.076;2023-07-29T07:08:24;76.93;;;73.40;;
64157;SDS011;50449;51.528;5.076;2023-07-29T07:10:49;76.57;;;72.88;;
64157;SDS011;50449;51.528;5.076;2023-07-29T07:13:15;75.43;;;72.03;;
64157;SDS011;50449;51.528;5.076;2023-07-29T07:15:40;77.22;;;73.72;;
64157;SDS011;50449;51.528;5.076;2023-07-29T07:18:06;79.57;;;75.25;;
64157;SDS011;50449;51.528;5.076;2023-07-29T07:20:31;75.28;;;71.47;;
64157;SDS011;50449;51.528;5.076;2023-07-29T07:22:57;78.03;;;74.05;;
64157;SDS011;50449;51.528;5.076;2023-07-29T07:25:22;74.53;;;71.05;;
64157;SDS011;50449;51.528;5.076;2023-07-29T07:27:47;77.47;;;73.43;;
64157;SDS011;50449;51.528;5.076;2023-07-29T07:30:13;77.95;;;74.20;;
64157;SDS011;50449;51.528;5.076;2023-07-29T07:32:39;79.55;;;75.30;;
64157;SDS011;50449;51.528;5.076;2023-07-29T07:35:04;78.20;;;74.60;;
64157;SDS011;50449;51.528;5.076;2023-07-29T07:37:30;76.55;;;73.03;;
64157;SDS011;50449;51.528;5.076;2023-07-29T07:39:55;77.22;;;73.63;;
64157;SDS011;50449;51.528;5.076;2023-07-29T07:42:21;76.05;;;72.53;;
64157;SDS011;50449;51.528;5.076;2023-07-29T07:44:46;77.60;;;74.10;;
64157;SDS011;50449;51.528;5.076;2023-07-29T07:47:12;77.47;;;73.88;;
64157;SDS011;50449;51.528;5.076;2023-07-29T07:49:37;79.20;;;75.60;;
64157;SDS011;50449;51.528;5.076;2023-07-29T07:52:03;78.85;;;75.25;;
64157;SDS011;50449;51.528;5.076;2023-07-29T07:54:28;76.13;;;72.72;;
64157;SDS011;50449;51.528;5.076;2023-07-29T07:56:54;78.10;;;74.53;;
64157;SDS011;50449;51.528;5.076;2023-07-29T07:59:19;80.32;;;76.68;;
64157;SDS011;50449;51.528;5.076;2023-07-29T08:01:45;81.53;;;77.60;;
64157;SDS011;50449;51.528;5.076;2023-07-29T08:04:10;84.25;;;80.22;;
64157;SDS011;50449;51.528;5.076;2023-07-29T08:06:36;80.68;;;76.97;;
64157;SDS011;50449;51.528;5.076;2023-07-29T08:09:01;79.97;;;76.38;;
64157;SDS011;50449;51.528;5.076;2023-07-29T08:11:27;78.63;;;75.05;;
64157;SDS011;50449;51.528;5.076;2023-07-29T08:13:52;80.93;;;76.82;;
64157;SDS011;50449;51.528;5.076;2023-07-29T08:16:17;80.05;;;76.35;;
64157;SDS011;50449;51.528;5.076;2023-07-29T08:18:43;79.70;;;76.13;;
64157;SDS011;50449;51.528;5.076;2023-07-29T08:21:08;79.65;;;76.00;;
64157;SDS011;50449;51.528;5.076;2023-07-29T08:23:34;78.78;;;75.18;;
64157;SDS011;50449;51.528;5.076;2023-07-29T08:26:02;84.22;;;80.00;;
64157;SDS011;50449;51.528;5.076;2023-07-29T08:28:33;80.15;;;76.43;;
64157;SDS011;50449;51.528;5.076;2023-07-29T08:31:04;78.80;;;75.20;;
64157;SDS011;50449;51.528;5.076;2023-07-29T08:33:30;78.13;;;74.43;;
64157;SDS011;50449;51.528;5.076;2023-07-29T08:35:56;79.20;;;75.43;;
64157;SDS011;50449;51.528;5.076;2023-07-29T08:38:22;80.93;;;77.22;;
64157;SDS011;50449;51.528;5.076;2023-07-29T08:40:57;81.85;;;78.15;;
64157;SDS011;50449;51.528;5.076;2023-07-29T08:43:30;81.30;;;77.70;;
64157;SDS011;50449;51.528;5.076;2023-07-29T08:45:58;83.18;;;78.80;;
64157;SDS011;50449;51.528;5.076;2023-07-29T08:48:29;86.60;;;82.72;;
64157;SDS011;50449;51.528;5.076;2023-07-29T08:51:00;83.45;;;79.55;;
64157;SDS011;50449;51.528;5.076;2023-07-29T08:53:28;85.35;;;81.53;;
64157;SDS011;50449;51.528;5.076;2023-07-29T08:55:54;81.10;;;77.43;;
64157;SDS011;50449;51.528;5.076;2023-07-29T08:58:20;83.15;;;79.25;;
64157;SDS011;50449;51.528;5.076;2023-07-29T09:00:47;81.43;;;77.72;;
64157;SDS011;50449;51.528;5.076;2023-07-29T09:03:13;83.35;;;79.28;;
64157;SDS011;50449;51.528;5.076;2023-07-29T09:05:39;81.93;;;78.20;;
64157;SDS011;50449;51.528;5.076;2023-07-29T09:08:04;81.85;;;78.05;;
64157;SDS011;50449;51.528;5.076;2023-07-29T09:10:30;83.38;;;79.57;;
64157;SDS011;50449;51.528;5.076;2023-07-29T09:13:00;81.97;;;78.22;;
64157;SDS011;50449;51.528;5.076;2023-07-29T09:15:31;83.57;;;79.80;;
64157;SDS011;50449;51.528;5.076;2023-07-29T09:17:58;86.72;;;82.93;;
64157;SDS011;50449;51.528;5.076;2023-07-29T09:20:26;85.95;;;82.05;;
64157;SDS011;50449;51.528;5.076;2023-07-29T09:22:56;87.13;;;83.03;;
64157;SDS011;50449;51.528;5.076;2023-07-29T09:25:25;83.72;;;79.75;;
64157;SDS011;50449;51.528;5.076;2023-07-29T09:27:51;84.80;;;81.03;;
64157;SDS011;50449;51.528;5.076;2023-07-29T09:30:16;86.22;;;82.38;;
64157;SDS011;50449;51.528;5.076;2023-07-29T09:32:42;90.35;;;86.18;;
64157;SDS011;50449;51.528;5.076;2023-07-29T09:35:13;89.45;;;85.15;;
64157;SDS011;50449;51.528;5.076;2023-07-29T09:37:39;88.47;;;84.47;;
64157;SDS011;50449;51.528;5.076;2023-07-29T09:40:05;86.15;;;82.32;;
64157;SDS011;50449;51.528;5.076;2023-07-29T09:42:31;88.55;;;84.60;;
64157;SDS011;50449;51.528;5.076;2023-07-29T09:44:57;88.60;;;84.63;;
64157;SDS011;50449;51.528;5.076;2023-07-29T09:47:23;92.00;;;87.68;;
64157;SDS011;50449;51.528;5.076;2023-07-29T09:49:50;87.63;;;83.73;;
64157;SDS011;50449;51.528;5.076;2023-07-29T09:52:17;90.53;;;86.55;;
64157;SDS011;50449;51.528;5.076;2023-07-29T09:54:44;88.88;;;84.97;;
64157;SDS011;50449;51.528;5.076;2023-07-29T09:57:16;91.82;;;87.72;;
64157;SDS011;50449;51.528;5.076;2023-07-29T09:59:52;88.95;;;85.05;;
64157;SDS011;50449;51.528;5.076;2023-07-29T10:02:20;93.03;;;88.72;;
64157;SDS011;50449;51.528;5.076;2023-07-29T10:04:46;89.05;;;85.05;;
64157;SDS011;50449;51.528;5.076;2023-07-29T10:07:12;93.53;;;89.03;;
64157;SDS011;50449;51.528;5.076;2023-07-29T10:09:38;91.32;;;87.32;;
64157;SDS011;50449;51.528;5.076;2023-07-29T10:12:04;93.78;;;89.57;;
64157;SDS011;50449;51.528;5.076;2023-07-29T10:14:31;91.47;;;87.40;;
64157;SDS011;50449;51.528;5.076;2023-07-29T10:16:57;94.43;;;90.22;;
64157;SDS011;50449;51.528;5.076;2023-07-29T10:19:24;92.65;;;88.50;;
64157;SDS011;50449;51.528;5.076;2023-07-29T10:21:53;95.35;;;91.10;;
64157;SDS011;50449;51.528;5.076;2023-07-29T10:24:24;94.40;;;90.18;;
64157;SDS011;50449;51.528;5.076;2023-07-29T10:26:55;96.63;;;92.05;;
64157;SDS011;50449;51.528;5.076;2023-07-29T10:29:26;94.95;;;90.57;;
64157;SDS011;50449;51.528;5.076;2023-07-29T10:31:56;93.72;;;89.60;;
64157;SDS011;50449;51.528;5.076;2023-07-29T10:34:22;97.05;;;92.53;;
64157;SDS011;50449;51.528;5.076;2023-07-29T10:36:49;94.88;;;90.72;;
64157;SDS011;50449;51.528;5.076;2023-07-29T10:39:15;97.63;;;93.40;;
64157;SDS011;50449;51.528;5.076;2023-07-29T10:41:57;98.32;;;94.03;;
64157;SDS011;50449;51.528;5.076;2023-07-29T10:49:51;97.53;;;93.18;;
64157;SDS011;50449;51.528;5.076;2023-07-29T10:52:27;99.35;;;95.00;;
64157;SDS011;50449;51.528;5.076;2023-07-29T10:55:01;97.35;;;93.07;;
64157;SDS011;50449;51.528;5.076;2023-07-29T10:57:34;102.25;;;97.65;;
64157;SDS011;50449;51.528;5.076;2023-07-29T11:00:02;98.88;;;94.38;;
64157;SDS011;50449;51.528;5.076;2023-07-29T11:02:34;96.85;;;92.55;;
64157;SDS011;50449;51.528;5.076;2023-07-29T11:05:07;100.00;;;95.60;;
64157;SDS011;50449;51.528;5.076;2023-07-29T11:07:47;101.13;;;96.72;;
64157;SDS011;50449;51.528;5.076;2023-07-29T11:10:13;104.38;;;99.78;;
64157;SDS011;50449;51.528;5.076;2023-07-29T11:15:22;98.85;;;94.50;;
64157;SDS011;50449;51.528;5.076;2023-07-29T11:17:49;102.50;;;98.03;;
64157;SDS011;50449;51.528;5.076;2023-07-29T11:20:19;99.45;;;95.07;;
64157;SDS011;50449;51.528;5.076;2023-07-29T11:22:47;99.97;;;95.57;;
64157;SDS011;50449;51.528;5.076;2023-07-29T11:25:14;102.65;;;98.13;;
64157;SDS011;50449;51.528;5.076;2023-07-29T11:27:40;100.82;;;96.22;;
64157;SDS011;50449;51.528;5.076;2023-07-29T11:30:06;99.75;;;95.28;;
64157;SDS011;50449;51.528;5.076;2023-07-29T11:32:34;100.50;;;95.70;;
64157;SDS011;50449;51.528;5.076;2023-07-29T11:37:29;103.50;;;98.82;;
64157;SDS011;50449;51.528;5.076;2023-07-29T11:39:54;96.55;;;92.35;;
64157;SDS011;50449;51.528;5.076;2023-07-29T11:42:20;98.55;;;94.25;;
64157;SDS011;50449;51.528;5.076;2023-07-29T11:44:45;101.45;;;96.75;;
64157;SDS011;50449;51.528;5.076;2023-07-29T11:47:11;104.25;;;98.82;;
64157;SDS011;50449;51.528;5.076;2023-07-29T11:49:38;101.05;;;96.53;;
64157;SDS011;50449;51.528;5.076;2023-07-29T11:52:05;104.35;;;99.72;;
64157;SDS011;50449;51.528;5.076;2023-07-29T11:54:32;103.07;;;98.35;;
64157;SDS011;50449;51.528;5.076;2023-07-29T11:56:57;107.13;;;102.35;;
64157;SDS011;50449;51.528;5.076;2023-07-29T11:59:23;106.78;;;100.68;;
64157;SDS011;50449;51.528;5.076;2023-07-29T12:01:48;101.88;;;96.47;;
64157;SDS011;50449;51.528;5.076;2023-07-29T12:04:14;105.72;;;101.05;;
64157;SDS011;50449;51.528;5.076;2023-07-29T12:06:41;104.72;;;99.65;;
64157;SDS011;50449;51.528;5.076;2023-07-29T12:09:07;98.55;;;94.22;;
64157;SDS011;50449;51.528;5.076;2023-07-29T12:11:34;103.82;;;99.15;;
64157;SDS011;50449;51.528;5.076;2023-07-29T12:14:00;105.88;;;100.95;;
64157;SDS011;50449;51.528;5.076;2023-07-29T12:16:25;107.13;;;101.88;;
64157;SDS011;50449;51.528;5.076;2023-07-29T12:18:51;103.60;;;98.90;;
64157;SDS011;50449;51.528;5.076;2023-07-29T12:21:17;103.38;;;98.72;;
64157;SDS011;50449;51.528;5.076;2023-07-29T12:23:43;101.68;;;96.72;;
64157;SDS011;50449;51.528;5.076;2023-07-29T12:26:09;108.43;;;103.15;;
64157;SDS011;50449;51.528;5.076;2023-07-29T12:28:34;102.05;;;97.43;;
64157;SDS011;50449;51.528;5.076;2023-07-29T12:31:00;108.75;;;103.90;;
64157;SDS011;50449;51.528;5.076;2023-07-29T12:36:01;100.22;;;95.82;;
64157;SDS011;50449;51.528;5.076;2023-07-29T12:38:28;103.43;;;98.93;;
64157;SDS011;50449;51.528;5.076;2023-07-29T12:40:54;101.32;;;96.63;;
64157;SDS011;50449;51.528;5.076;2023-07-29T12:43:20;105.57;;;100.88;;
64157;SDS011;50449;51.528;5.076;2023-07-29T12:45:45;104.88;;;100.15;;
64157;SDS011;50449;51.528;5.076;2023-07-29T12:48:11;101.57;;;97.03;;
64157;SDS011;50449;51.528;5.076;2023-07-29T12:50:37;103.22;;;98.38;;
64157;SDS011;50449;51.528;5.076;2023-07-29T12:53:04;101.43;;;96.82;;
64157;SDS011;50449;51.528;5.076;2023-07-29T12:55:30;104.78;;;99.43;;
64157;SDS011;50449;51.528;5.076;2023-07-29T12:57:55;105.53;;;100.68;;
64157;SDS011;50449;51.528;5.076;2023-07-29T13:00:21;102.80;;;98.28;;
64157;SDS011;50449;51.528;5.076;2023-07-29T13:02:46;105.93;;;101.13;;
64157;SDS011;50449;51.528;5.076;2023-07-29T13:05:11;102.65;;;98.15;;
64157;SDS011;50449;51.528;5.076;2023-07-29T13:07:42;102.03;;;97.38;;
64157;SDS011;50449;51.528;5.076;2023-07-29T13:10:08;104.22;;;99.45;;
64157;SDS011;50449;51.528;5.076;2023-07-29T13:12:35;102.63;;;98.05;;
64157;SDS011;50449;51.528;5.076;2023-07-29T13:15:00;104.22;;;99.70;;
64157;SDS011;50449;51.528;5.076;2023-07-29T13:17:26;101.18;;;96.47;;
64157;SDS011;50449;51.528;5.076;2023-07-29T13:19:51;101.82;;;97.30;;
64157;SDS011;50449;51.528;5.076;2023-07-29T13:22:17;98.07;;;93.78;;
64157;SDS011;50449;51.528;5.076;2023-07-29T13:24:43;106.22;;;101.63;;
64157;SDS011;50449;51.528;5.076;2023-07-29T13:27:08;99.30;;;94.90;;
64157;SDS011;50449;51.528;5.076;2023-07-29T13:29:33;99.25;;;94.88;;
64157;SDS011;50449;51.528;5.076;2023-07-29T13:31:59;103.03;;;98.53;;
64157;SDS011;50449;51.528;5.076;2023-07-29T13:34:24;100.10;;;95.78;;
64157;SDS011;50449;51.528;5.076;2023-07-29T13:36:50;103.75;;;99.22;;
64157;SDS011;50449;51.528;5.076;2023-07-29T13:39:15;101.80;;;97.20;;
64157;SDS011;50449;51.528;5.076;2023-07-29T13:41:41;100.82;;;96.28;;
64157;SDS011;50449;51.528;5.076;2023-07-29T13:44:06;109.40;;;104.63;;
64157;SDS011;50449;51.528;5.076;2023-07-29T13:46:31;103.95;;;99.47;;
64157;SDS011;50449;51.528;5.076;2023-07-29T13:48:57;104.10;;;99.07;;
64157;SDS011;50449;51.528;5.076;2023-07-29T13:51:22;103.30;;;98.45;;
64157;SDS011;50449;51.528;5.076;2023-07-29T13:53:48;99.93;;;95.50;;
64157;SDS011;50449;51.528;5.076;2023-07-29T13:56:13;104.70;;;100.00;;
64157;SDS011;50449;51.528;5.076;2023-07-29T13:58:39;104.65;;;100.13;;
64157;SDS011;50449;51.528;5.076;2023-07-29T14:01:05;102.03;;;97.63;;
64157;SDS011;50449;51.528;5.076;2023-07-29T14:03:31;105.07;;;100.38;;
64157;SDS011;50449;51.528;5.076;2023-07-29T14:05:56;103.95;;;99.35;;
64157;SDS011;50449;51.528;5.076;2023-07-29T14:08:21;112.28;;;107.35;;
64157;SDS011;50449;51.528;5.076;2023-07-29T14:10:48;104.55;;;100.03;;
64157;SDS011;50449;51.528;5.076;2023-07-29T14:13:14;101.07;;;96.38;;
64157;SDS011;50449;51.528;5.076;2023-07-29T14:15:39;103.45;;;98.78;;
64157;SDS011;50449;51.528;5.076;2023-07-29T14:18:05;105.03;;;100.47;;
64157;SDS011;50449;51.528;5.076;2023-07-29T14:20:31;102.22;;;97.78;;
64157;SDS011;50449;51.528;5.076;2023-07-29T14:22:58;103.38;;;98.88;;
64157;SDS011;50449;51.528;5.076;2023-07-29T14:25:23;103.03;;;97.80;;
64157;SDS011;50449;51.528;5.076;2023-07-29T14:27:49;96.05;;;91.85;;
64157;SDS011;50449;51.528;5.076;2023-07-29T14:30:14;99.53;;;94.90;;
64157;SDS011;50449;51.528;5.076;2023-07-29T14:32:39;98.65;;;94.35;;